Time;durP1;ratioP1;P1;durP2;ratioP2;P2;SDS_P1;SDS_P2;PMS_P1;PMS_P2;Temp;Humidity;BMP_temperature;BMP_pressure;BME280_temperature;BME280_humidity;BME280_pressure;Samples;Min_cycle;Max_cycle;Signal;HPM_P1;HPM_P2
2022/05/28 00:01:19;;;;;;;6.60;4.05;;;;;;;15.31;100.00;90788.16;5071907;28;20024;-73
2022/05/28 00:03:46;;;;;;;6.47;3.67;;;;;;;15.28;100.00;90794.97;5089812;28;20040;-73
2022/05/28 00:06:20;;;;;;;4.55;2.92;;;;;;;15.27;100.00;90777.31;5089875;28;20024;-73
2022/05/28 00:08:46;;;;;;;6.07;3.72;;;;;;;15.29;100.00;90799.19;5089775;28;20648;-74
2022/05/28 00:11:15;;;;;;;6.10;4.13;;;;;;;15.26;100.00;90794.53;5089836;28;20073;-73
2022/05/28 00:13:41;;;;;;;5.68;3.78;;;;;;;15.24;100.00;90799.44;5089733;28;20024;-73
2022/05/28 00:16:06;;;;;;;6.47;4.22;;;;;;;15.32;100.00;90818.44;5071331;28;20498;-74
2022/05/28 00:18:32;;;;;;;6.22;4.05;;;;;;;15.17;100.00;90818.00;5071589;28;20028;-71
2022/05/28 00:20:58;;;;;;;6.63;4.68;;;;;;;15.03;100.00;90824.84;5071314;28;20031;-72
2022/05/28 00:23:24;;;;;;;7.45;4.95;;;;;;;14.93;100.00;90826.88;5089530;28;20028;-72
2022/05/28 00:25:50;;;;;;;8.15;4.07;;;;;;;14.90;100.00;90826.75;5089927;28;20078;-74
2022/05/28 00:28:21;;;;;;;7.25;3.55;;;;;;;14.98;100.00;90826.63;5089604;28;20038;-71
2022/05/28 00:30:46;;;;;;;5.38;3.47;;;;;;;15.15;100.00;90816.78;5089457;28;20118;-71
2022/05/28 00:33:12;;;;;;;7.25;4.05;;;;;;;15.16;100.00;90808.41;5089504;28;20071;-70
2022/05/28 00:35:37;;;;;;;6.43;3.88;;;;;;;15.14;100.00;90805.28;5090644;28;20109;-72
2022/05/28 00:38:02;;;;;;;6.65;3.78;;;;;;;15.15;100.00;90814.13;5090817;28;20032;-72
2022/05/28 00:40:28;;;;;;;6.85;4.32;;;;;;;15.19;100.00;90812.31;5090801;28;20405;-72
2022/05/28 00:43:01;;;;;;;9.35;4.63;;;;;;;15.18;100.00;90816.91;5088399;28;20077;-72
2022/05/28 00:45:29;;;;;;;9.27;4.90;;;;;;;15.16;100.00;90810.31;5090579;28;20382;-73
2022/05/28 00:47:58;;;;;;;5.05;4.00;;;;;;;15.05;100.00;90811.91;5090651;28;20123;-73
2022/05/28 00:50:25;;;;;;;6.97;3.90;;;;;;;14.99;100.00;90811.34;5090614;28;20024;-73
2022/05/28 00:52:52;;;;;;;6.47;4.28;;;;;;;14.97;100.00;90805.53;5090705;28;20032;-73
2022/05/28 00:55:19;;;;;;;7.95;3.88;;;;;;;14.94;100.00;90807.00;5090624;28;20089;-72
2022/05/28 00:57:46;;;;;;;7.63;4.57;;;;;;;14.80;100.00;90805.78;5094230;28;20064;-72
2022/05/28 01:00:14;;;;;;;7.45;4.13;;;;;;;14.72;100.00;90799.44;5094353;28;20024;-73
2022/05/28 01:02:53;;;;;;;9.93;3.95;;;;;;;14.60;100.00;90800.22;5094076;28;20067;-73
2022/05/28 01:05:28;;;;;;;5.22;3.70;;;;;;;14.60;100.00;90800.22;5093826;28;20082;-73
2022/05/28 01:07:57;;;;;;;6.72;3.50;;;;;;;14.62;100.00;90799.88;5093944;28;20034;-73
2022/05/28 01:10:31;;;;;;;4.65;3.38;;;;;;;14.60;100.00;90791.41;5094028;28;20038;-72
2022/05/28 01:13:06;;;;;;;5.75;3.70;;;;;;;14.68;100.00;90785.19;5093945;28;20043;-74
2022/05/28 01:15:38;;;;;;;9.40;3.55;;;;;;;14.77;100.00;90798.44;5093870;28;20028;-73
2022/05/28 01:18:04;;;;;;;5.28;4.15;;;;;;;14.85;100.00;90787.59;5093704;28;20032;-73
2022/05/28 01:20:35;;;;;;;5.53;3.50;;;;;;;14.97;100.00;90782.19;5093693;28;20024;-73
2022/05/28 01:23:03;;;;;;;6.93;4.30;;;;;;;15.04;100.00;90772.84;5093534;28;20497;-72
2022/05/28 01:26:16;;;;;;;5.72;4.13;;;;;;;15.06;100.00;90776.72;5093521;28;20115;-72
2022/05/28 01:28:57;;;;;;;5.85;3.25;;;;;;;15.01;100.00;90787.69;5011512;28;20057;-72
2022/05/28 01:31:26;;;;;;;7.10;4.00;;;;;;;14.91;100.00;90759.47;5011416;28;20036;-72
2022/05/28 01:33:52;;;;;;;5.00;3.58;;;;;;;14.86;100.00;90754.34;5059759;28;20039;-72
2022/05/28 01:36:18;;;;;;;7.25;4.30;;;;;;;14.87;100.00;90749.78;5093262;28;20032;-71
2022/05/28 01:38:46;;;;;;;5.50;3.30;;;;;;;14.88;100.00;90759.38;5093330;28;20038;-71
2022/05/28 01:41:13;;;;;;;4.97;3.35;;;;;;;14.97;100.00;90751.97;5093206;28;20024;-70
2022/05/28 01:43:40;;;;;;;6.70;3.70;;;;;;;14.95;100.00;90751.53;5093148;28;20027;-70
2022/05/28 01:46:08;;;;;;;5.22;3.30;;;;;;;14.94;100.00;90758.00;5093084;28;20060;-70
2022/05/28 01:48:36;;;;;;;4.90;3.28;;;;;;;14.88;100.00;90751.31;5093466;28;20103;-70
2022/05/28 01:51:04;;;;;;;7.85;3.72;;;;;;;14.76;100.00;90756.69;5093123;28;20031;-70
2022/05/28 01:56:16;;;;;;;8.68;3.70;;;;;;;14.70;100.00;90747.34;5092906;28;20108;-69
2022/05/28 01:58:41;;;;;;;5.38;2.92;;;;;;;14.73;100.00;90752.81;5092715;28;20619;-69
2022/05/28 02:01:08;;;;;;;5.78;2.72;;;;;;;14.63;100.00;90743.31;5092754;28;20099;-69
2022/05/28 02:03:37;;;;;;;8.55;3.90;;;;;;;14.67;100.00;90757.63;5074544;28;20024;-70
2022/05/28 02:06:03;;;;;;;4.28;2.92;;;;;;;14.80;100.00;90762.94;5092635;28;20036;-69
2022/05/28 02:08:35;;;;;;;5.30;3.38;;;;;;;14.76;100.00;90773.53;5092563;28;20028;-69
2022/05/28 02:11:12;;;;;;;5.25;3.50;;;;;;;14.71;100.00;90779.13;5092552;28;20038;-70
2022/05/28 02:13:46;;;;;;;5.38;3.25;;;;;;;14.56;100.00;90791.31;5092610;28;20032;-70
2022/05/28 02:16:18;;;;;;;8.88;3.83;;;;;;;14.49;100.00;90795.66;5092408;28;20498;-70
2022/05/28 02:18:54;;;;;;;6.53;4.22;;;;;;;14.44;100.00;90815.41;5074280;28;20081;-71
2022/05/28 02:21:39;;;;;;;7.93;3.33;;;;;;;14.28;100.00;90817.13;5092490;28;20030;-71
2022/05/28 02:24:11;;;;;;;7.75;4.47;;;;;;;14.13;100.00;90825.81;5088577;28;20036;-70
2022/05/28 02:26:46;;;;;;;8.27;4.85;;;;;;;13.90;100.00;90823.56;5092068;28;20115;-72
2022/05/28 02:29:13;;;;;;;6.43;4.60;;;;;;;13.85;100.00;90831.75;5092330;28;20102;-71
2022/05/28 02:31:43;;;;;;;8.85;5.05;;;;;;;13.94;100.00;90840.50;5092266;28;20032;-71
2022/05/28 02:34:09;;;;;;;9.80;4.65;;;;;;;13.91;100.00;90846.50;5092164;28;20574;-71
2022/05/28 02:36:34;;;;;;;6.80;4.40;;;;;;;13.92;100.00;90853.41;5092097;28;20040;-71
2022/05/28 02:39:00;;;;;;;9.02;4.72;;;;;;;13.75;100.00;90854.38;5073827;28;20378;-71
2022/05/28 02:41:25;;;;;;;6.63;4.22;;;;;;;13.53;100.00;90833.31;5092144;28;20020;-71
2022/05/28 02:43:52;;;;;;;8.55;5.18;;;;;;;13.58;100.00;90843.06;5092057;28;20019;-71
2022/05/28 02:46:18;;;;;;;8.07;4.65;;;;;;;13.56;100.00;90845.25;5073793;28;20096;-73
2022/05/28 02:48:45;;;;;;;5.75;4.25;;;;;;;13.59;100.00;90857.97;5091969;28;20485;-72
2022/05/28 02:51:19;;;;;;;7.25;4.40;;;;;;;13.62;100.00;90847.41;5073697;28;20032;-73
2022/05/28 02:53:45;;;;;;;;;;;;;;;13.79;100.00;90835.78;5074055;28;20408;-72
2022/05/28 02:56:11;;;;;;;8.48;5.22;;;;;;;13.90;100.00;90839.59;5091804;28;19908;-72
2022/05/28 02:58:37;;;;;;;5.95;4.05;;;;;;;13.84;100.00;90848.91;5091639;28;20109;-72
2022/05/28 03:01:14;;;;;;;7.50;4.15;;;;;;;13.92;100.00;90864.13;5091763;28;20060;-71
2022/05/28 03:03:40;;;;;;;10.40;3.63;;;;;;;13.91;100.00;90851.84;5091687;28;20456;-71
2022/05/28 03:06:06;;;;;;;5.95;3.65;;;;;;;13.98;100.00;90854.75;5091575;28;20020;-71
2022/05/28 03:08:31;;;;;;;5.25;3.58;;;;;;;13.94;100.00;90845.84;5091618;28;20081;-71
2022/05/28 03:10:56;;;;;;;4.45;3.22;;;;;;;13.95;100.00;90850.06;5091546;28;20110;-71
2022/05/28 03:13:22;;;;;;;5.68;3.72;;;;;;;14.00;100.00;90854.41;5091509;28;20028;-72
2022/05/28 03:15:47;;;;;;;3.10;2.78;;;;;;;14.06;100.00;90861.94;5091416;28;20027;-72
2022/05/28 03:18:13;;;;;;;6.07;3.58;;;;;;;14.14;100.00;90854.13;5091174;28;20024;-71
2022/05/28 03:20:38;;;;;;;4.60;3.38;;;;;;;14.28;100.00;90851.91;5073152;28;20047;-72
2022/05/28 03:23:04;;;;;;;7.10;3.67;;;;;;;14.39;100.00;90866.44;5091376;28;20024;-72
2022/05/28 03:25:30;;;;;;;4.75;3.25;;;;;;;14.15;100.00;90848.44;5091136;28;20036;-72
2022/05/28 03:27:55;;;;;;;4.68;2.70;;;;;;;14.40;100.00;90854.63;5073061;28;20108;-72
2022/05/28 03:30:21;;;;;;;6.40;2.78;;;;;;;14.40;100.00;90849.28;5091276;28;20053;-72
2022/05/28 03:32:47;;;;;;;9.10;3.63;;;;;;;14.41;100.00;90845.47;5073190;28;20050;-72
2022/05/28 03:35:12;;;;;;;4.43;3.13;;;;;;;14.34;100.00;90853.25;5091155;28;20024;-71
2022/05/28 03:37:37;;;;;;;6.78;3.30;;;;;;;14.36;100.00;90851.06;5091246;28;20035;-72
2022/05/28 03:40:04;;;;;;;4.68;3.08;;;;;;;14.48;100.00;90852.97;5091174;28;20024;-72
2022/05/28 03:42:30;;;;;;;7.22;3.17;;;;;;;14.70;100.00;90849.88;5091169;28;20024;-71
2022/05/28 03:44:55;;;;;;;3.10;2.80;;;;;;;14.99;100.00;90856.91;5091031;28;20024;-70
2022/05/28 03:47:21;;;;;;;6.72;3.45;;;;;;;15.05;100.00;90855.53;5091184;28;20505;-71
2022/05/28 03:49:47;;;;;;;8.00;3.85;;;;;;;15.11;100.00;90851.50;5091104;28;20042;-72
2022/05/28 03:52:14;;;;;;;5.78;3.42;;;;;;;15.16;100.00;90856.66;5091063;28;20032;-72
2022/05/28 03:54:43;;;;;;;4.97;3.72;;;;;;;15.12;100.00;90860.31;5090968;28;20038;-73
2022/05/28 03:57:13;;;;;;;4.85;3.28;;;;;;;15.08;100.00;90857.53;5089252;28;20028;-72
2022/05/28 03:59:38;;;;;;;5.93;3.70;;;;;;;15.19;100.00;90855.97;5070668;28;20108;-72
2022/05/28 04:02:04;;;;;;;5.82;4.15;;;;;;;15.31;100.00;90855.16;5052817;28;20032;-72
2022/05/28 04:04:30;;;;;;;9.93;3.42;;;;;;;15.44;100.00;90840.59;5070723;28;20028;-70
2022/05/28 04:06:58;;;;;;;10.20;4.50;;;;;;;15.65;100.00;90840.47;5071031;28;20032;-70
2022/05/28 04:09:23;;;;;;;6.05;3.60;;;;;;;15.69;100.00;90838.66;5070754;28;20493;-71
2022/05/28 04:11:48;;;;;;;7.47;4.63;;;;;;;15.79;100.00;90832.81;5070750;28;20039;-72
2022/05/28 04:14:14;;;;;;;6.63;3.58;;;;;;;15.86;100.00;90827.63;5070722;28;20039;-71
2022/05/28 04:16:39;;;;;;;6.20;3.72;;;;;;;15.99;100.00;90827.56;5070628;28;20036;-71
2022/05/28 04:19:05;;;;;;;5.93;3.85;;;;;;;16.07;100.00;90826.63;5070663;28;20024;-72
2022/05/28 04:21:30;;;;;;;11.10;5.03;;;;;;;16.25;100.00;90813.66;5070618;28;20024;-71
2022/05/28 04:23:57;;;;;;;7.18;4.75;;;;;;;16.37;100.00;90824.31;5070416;28;20051;-71
2022/05/28 04:26:22;;;;;;;8.80;4.13;;;;;;;16.39;100.00;90809.41;5070540;28;20383;-72
2022/05/28 04:28:48;;;;;;;5.43;4.45;;;;;;;16.51;100.00;90811.25;5070398;28;20035;-71
2022/05/28 04:31:13;;;;;;;8.45;4.93;;;;;;;16.66;100.00;90812.38;5071759;28;20028;-72
2022/05/28 04:33:39;;;;;;;6.93;4.32;;;;;;;16.70;100.00;90815.94;5056253;28;20028;-73
2022/05/28 04:36:04;;;;;;;7.70;4.35;;;;;;;16.81;100.00;90803.53;5074180;28;20021;-73
2022/05/28 04:38:30;;;;;;;5.25;4.45;;;;;;;17.13;100.00;90806.16;5074245;28;20021;-73
2022/05/28 04:40:55;;;;;;;6.03;4.05;;;;;;;17.59;100.00;90807.13;5074119;28;20052;-73
2022/05/28 04:43:21;;;;;;;11.45;4.60;;;;;;;17.80;100.00;90801.41;5056076;28;20051;-74
2022/05/28 04:45:46;;;;;;;8.57;4.80;;;;;;;18.22;100.00;90813.00;5073990;28;20047;-75
2022/05/28 04:48:12;;;;;;;6.30;4.05;;;;;;;18.90;100.00;90810.66;5074014;28;20024;-75
2022/05/28 04:50:38;;;;;;;7.07;4.55;;;;;;;19.46;100.00;90802.63;5073943;28;20035;-76
2022/05/28 04:53:04;;;;;;;10.63;4.80;;;;;;;20.02;100.00;90810.66;5073847;28;20032;-75
2022/05/28 04:55:30;;;;;;;12.15;5.13;;;;;;;20.42;100.00;90806.47;5073788;28;20478;-76
2022/05/28 04:57:56;;;;;;;5.78;4.40;;;;;;;20.69;100.00;90803.66;5073583;28;20045;-75
2022/05/28 05:00:24;;;;;;;7.45;4.22;;;;;;;20.88;100.00;90811.53;5073778;28;20021;-75
2022/05/28 05:02:50;;;;;;;9.45;4.53;;;;;;;20.99;100.00;90811.59;5073748;28;20103;-75
2022/05/28 05:05:16;;;;;;;5.65;4.25;;;;;;;20.92;100.00;90802.28;5073524;28;20120;-75
2022/05/28 05:07:41;;;;;;;5.95;3.97;;;;;;;20.66;100.00;90801.66;5073878;28;20500;-75
2022/05/28 05:10:08;;;;;;;6.85;4.50;;;;;;;20.40;100.00;90803.34;5073662;28;20028;-74
2022/05/28 05:12:33;;;;;;;9.27;4.97;;;;;;;20.97;100.00;90811.97;5073452;28;20063;-74
2022/05/28 05:14:59;;;;;;;10.93;5.82;;;;;;;21.25;100.00;90810.66;5073580;28;20032;-73
2022/05/28 05:17:24;;;;;;;6.38;4.10;;;;;;;21.62;99.27;90803.19;5073657;28;20063;-73
2022/05/28 05:19:52;;;;;;;11.30;4.75;;;;;;;22.16;94.33;90800.72;5073586;28;20024;-72
2022/05/28 05:22:18;;;;;;;8.82;5.30;;;;;;;22.33;90.90;90805.41;5073566;28;20033;-72
2022/05/28 05:24:44;;;;;;;10.13;4.20;;;;;;;22.22;92.67;90810.78;5073358;28;20103;-72
2022/05/28 05:27:10;;;;;;;4.38;3.88;;;;;;;21.93;95.10;90809.88;5073392;28;20116;-72
2022/05/28 05:29:36;;;;;;;7.68;4.18;;;;;;;21.51;98.88;90813.94;5073519;28;20145;-72
2022/05/28 05:32:02;;;;;;;7.55;4.85;;;;;;;21.65;100.00;90815.19;5073373;28;20024;-72
2022/05/28 05:34:27;;;;;;;7.35;4.80;;;;;;;21.72;100.00;90821.38;5073194;28;20033;-73
2022/05/28 05:36:52;;;;;;;5.40;4.68;;;;;;;21.85;100.00;90819.13;5055287;28;20449;-72
2022/05/28 05:39:18;;;;;;;6.80;4.72;;;;;;;21.74;97.28;90824.50;5073271;28;20536;-73
2022/05/28 05:41:43;;;;;;;7.97;5.13;;;;;;;21.82;96.19;90822.63;5072803;28;20021;-73
2022/05/28 05:44:10;;;;;;;9.10;4.95;;;;;;;21.69;100.00;90819.44;5073203;28;20023;-73
2022/05/28 05:46:39;;;;;;;9.90;4.07;;;;;;;21.81;100.00;90829.97;5073023;28;20474;-74
2022/05/28 05:49:04;;;;;;;7.43;4.28;;;;;;;21.81;99.26;90824.53;5073109;28;20024;-74
2022/05/28 05:51:30;;;;;;;8.55;5.78;;;;;;;21.87;100.00;90832.28;5073137;28;20023;-73
2022/05/28 05:53:55;;;;;;;8.48;5.40;;;;;;;22.23;100.00;90834.03;5072865;28;20490;-73
2022/05/28 05:56:21;;;;;;;13.07;7.25;;;;;;;22.20;100.00;90840.22;5072745;28;20540;-74
2022/05/28 05:58:46;;;;;;;10.38;6.82;;;;;;;21.98;100.00;90831.19;5072750;28;20102;-74
2022/05/28 06:01:12;;;;;;;5.57;3.30;;;;;;;21.97;87.16;90834.28;5072757;28;20115;-74
2022/05/28 06:03:44;;;;;;;10.18;4.30;;;;;;;21.99;91.71;90845.50;5072747;28;20062;-73
2022/05/28 06:06:13;;;;;;;5.40;3.53;;;;;;;21.94;91.89;90843.97;5072625;28;20036;-72
2022/05/28 06:08:38;;;;;;;5.97;3.45;;;;;;;24.85;74.90;90846.97;5072604;28;20509;-72
2022/05/28 06:11:03;;;;;;;7.78;3.42;;;;;;;27.95;60.45;90852.44;5072486;28;20027;-72
2022/05/28 06:13:29;;;;;;;4.75;2.75;;;;;;;27.76;56.50;90845.72;5072432;28;20033;-71
2022/05/28 06:15:55;;;;;;;5.63;2.70;;;;;;;28.07;54.31;90845.56;5072405;28;20448;-72
2022/05/28 06:18:20;;;;;;;4.05;2.28;;;;;;;26.75;53.91;90844.84;5072568;28;20058;-73
2022/05/28 06:20:47;;;;;;;7.28;2.42;;;;;;;25.75;57.87;90851.41;5071594;28;20101;-72
2022/05/28 06:23:12;;;;;;;6.95;3.83;;;;;;;24.85;60.63;90839.59;5072393;28;20078;-72
2022/05/28 06:25:41;;;;;;;4.28;2.15;;;;;;;23.85;62.51;90844.66;5055695;28;20041;-75
2022/05/28 06:28:06;;;;;;;4.90;2.28;;;;;;;23.51;66.16;90842.38;5051845;28;20021;-74
2022/05/28 06:30:32;;;;;;;5.20;2.78;;;;;;;24.29;64.97;90827.81;5052161;28;20043;-77
2022/05/28 06:32:57;;;;;;;3.60;2.33;;;;;;;27.17;58.52;90823.63;5051802;28;20061;-74
2022/05/28 06:35:23;;;;;;;6.38;2.60;;;;;;;27.61;52.44;90823.28;5051726;28;20491;-77
2022/05/28 06:37:49;;;;;;;8.05;2.42;;;;;;;26.09;57.24;90821.47;5050561;28;20060;-73
2022/05/28 06:40:15;;;;;;;3.72;2.85;;;;;;;25.02;64.30;90824.34;5033968;28;20029;-73
2022/05/28 06:42:40;;;;;;;6.03;2.70;;;;;;;24.45;71.50;90840.97;5051825;28;20025;-64
2022/05/28 06:45:06;;;;;;;4.32;3.00;;;;;;;23.62;78.01;90850.50;5051902;28;20025;-65
2022/05/28 06:47:33;;;;;;;7.80;3.75;;;;;;;21.97;95.25;90834.28;5051443;28;20079;-65
2022/05/28 06:52:42;;;;;;;5.88;2.72;;;;;;;21.03;94.06;90805.09;5051860;28;20032;-66
2022/05/28 06:55:08;;;;;;;3.15;2.25;;;;;;;20.89;94.55;90807.69;5050683;28;20036;-67
2022/05/28 06:57:33;;;;;;;4.72;2.20;;;;;;;20.59;92.55;90810.50;5051325;28;20040;-68
2022/05/28 06:59:59;;;;;;;9.05;2.85;;;;;;;23.60;77.94;90803.97;5051496;28;20021;-67
2022/05/28 07:02:24;;;;;;;2.42;1.92;;;;;;;26.29;63.27;90799.81;5051091;28;20081;-66
2022/05/28 07:04:50;;;;;;;3.70;2.25;;;;;;;26.95;55.57;90804.03;5051223;28;20036;-66
2022/05/28 07:07:15;;;;;;;4.28;1.85;;;;;;;27.82;52.93;90811.25;5051310;28;20031;-68
2022/05/28 07:09:41;;;;;;;3.25;2.42;;;;;;;27.35;51.83;90805.00;5051343;28;20021;-69
2022/05/28 07:12:07;;;;;;;4.65;2.00;;;;;;;29.74;50.07;90804.50;5051291;28;20031;-68
2022/05/28 07:14:32;;;;;;;2.20;1.95;;;;;;;32.24;44.25;90794.41;5051175;28;20029;-67
2022/05/28 07:16:58;;;;;;;1.95;1.70;;;;;;;31.61;43.54;90806.31;5050817;28;20035;-67
2022/05/28 07:19:23;;;;;;;6.72;2.20;;;;;;;29.93;46.88;90799.31;5051250;28;20083;-67
2022/05/28 07:21:48;;;;;;;6.22;1.88;;;;;;;28.80;47.71;90790.59;5051118;28;20493;-67
2022/05/28 07:24:14;;;;;;;4.80;1.60;;;;;;;28.91;48.57;90784.91;5051140;28;20082;-68
2022/05/28 07:26:40;;;;;;;6.85;2.53;;;;;;;27.87;49.60;90796.34;5033351;28;20090;-67
2022/05/28 07:29:06;;;;;;;4.63;3.30;;;;;;;28.56;49.20;90781.72;5051081;28;20051;-68
2022/05/28 07:31:31;;;;;;;4.05;2.08;;;;;;;29.36;46.75;90779.56;5050597;28;20037;-68
2022/05/28 07:33:57;;;;;;;6.38;4.18;;;;;;;29.95;46.47;90777.72;5050987;28;20033;-68
2022/05/28 07:36:24;;;;;;;3.95;1.90;;;;;;;30.49;45.31;90766.84;5050821;28;20104;-68
2022/05/28 07:38:50;;;;;;;4.82;1.98;;;;;;;30.72;44.92;90770.53;5050993;28;20040;-68
2022/05/28 07:41:25;;;;;;;8.55;2.65;;;;;;;31.47;44.14;90763.53;5049559;28;20043;-70
2022/05/28 07:43:52;;;;;;;7.80;2.03;;;;;;;33.07;41.00;90768.97;5050841;28;20398;-71
2022/05/28 07:46:20;;;;;;;3.67;2.28;;;;;;;34.75;38.57;90752.59;5050242;28;20459;-72
2022/05/28 07:48:46;;;;;;;3.13;2.13;;;;;;;35.24;37.77;90756.34;5050874;28;20106;-71
2022/05/28 07:51:12;;;;;;;2.42;2.08;;;;;;;36.68;35.31;90754.41;5050703;28;20029;-72
2022/05/28 07:53:38;;;;;;;5.60;2.03;;;;;;;36.08;35.97;90747.16;5050630;28;20110;-71
2022/05/28 07:56:05;;;;;;;2.97;1.67;;;;;;;37.13;35.01;90756.75;5050732;28;20037;-68
2022/05/28 07:58:30;;;;;;;2.78;1.85;;;;;;;37.41;34.46;90735.03;5058121;28;20170;-71
2022/05/28 08:00:57;;;;;;;4.50;2.67;;;;;;;36.97;34.90;90720.41;5068327;28;20561;-72
2022/05/28 08:03:22;;;;;;;4.63;2.22;;;;;;;34.71;38.09;90724.34;5069498;28;20546;-71
2022/05/28 08:05:49;;;;;;;4.90;2.60;;;;;;;34.23;38.42;90713.00;5072482;28;20115;-72
2022/05/28 08:08:18;;;;;;;4.65;2.42;;;;;;;35.22;36.55;90711.78;5074987;28;20024;-70
2022/05/28 08:10:44;;;;;;;4.68;2.40;;;;;;;35.73;36.91;90714.47;5055429;28;20042;-68
2022/05/28 08:13:13;;;;;;;7.43;2.58;;;;;;;36.53;35.64;90710.03;5073500;28;20111;-69
2022/05/28 08:15:40;;;;;;;6.85;2.53;;;;;;;36.40;36.78;90707.53;5073284;28;20028;-69
2022/05/28 08:18:07;;;;;;;3.05;1.92;;;;;;;36.27;35.75;90705.00;5074372;28;20547;-68
2022/05/28 08:23:18;;;;;;;4.43;2.13;;;;;;;35.90;37.27;90698.22;5074387;28;20035;-67
2022/05/28 08:25:45;;;;;;;5.43;2.42;;;;;;;34.20;39.29;90707.66;5074138;28;20082;-68
2022/05/28 08:28:12;;;;;;;4.82;2.47;;;;;;;33.75;39.77;90695.34;5073595;28;20483;-71
2022/05/28 08:30:39;;;;;;;8.35;2.00;;;;;;;34.10;39.19;90689.56;5056653;28;20122;-67
2022/05/28 08:33:06;;;;;;;3.20;1.95;;;;;;;37.18;36.17;90700.59;5073963;28;20025;-67
2022/05/28 08:35:32;;;;;;;5.35;2.17;;;;;;;37.69;35.90;90699.34;5074111;28;20031;-67
2022/05/28 08:38:02;;;;;;;3.95;2.70;;;;;;;38.69;34.57;90701.88;5073876;28;20025;-71
2022/05/28 08:40:28;;;;;;;4.10;3.00;;;;;;;37.51;35.35;90702.38;5073066;28;20494;-67
2022/05/28 08:42:54;;;;;;;6.57;3.30;;;;;;;38.64;33.30;90700.56;5073999;28;20027;-72
2022/05/28 08:45:20;;;;;;;10.65;3.03;;;;;;;36.96;33.96;90697.47;5073381;28;20641;-73
2022/05/28 08:47:47;;;;;;;3.05;2.55;;;;;;;37.11;35.79;90697.47;5073910;28;20147;-70
2022/05/28 08:50:16;;;;;;;6.80;2.83;;;;;;;37.01;35.18;90693.25;5072854;28;20074;-70
2022/05/28 08:53:06;;;;;;;5.13;2.50;;;;;;;37.10;36.67;90701.47;5073743;28;20057;-71
2022/05/28 08:55:45;;;;;;;6.35;2.97;;;;;;;38.30;33.68;90684.75;5055773;28;20024;-72
2022/05/28 08:58:14;;;;;;;4.57;2.83;;;;;;;37.58;35.54;90685.31;5072991;28;20102;-75
2022/05/28 09:00:57;;;;;;;4.95;2.80;;;;;;;37.73;34.58;90682.53;5073368;28;20111;-72
2022/05/28 09:03:25;;;;;;;;;;;;;;;38.17;32.89;90675.97;5073943;28;20020;-70
2022/05/28 09:05:55;;;;;;;5.07;2.85;;;;;;;38.00;34.31;90673.00;5073368;28;19908;-69
2022/05/28 09:08:38;;;;;;;4.50;2.58;;;;;;;38.52;34.20;90676.66;5072694;28;20028;-72
2022/05/28 09:11:09;;;;;;;4.32;3.03;;;;;;;38.83;33.99;90675.97;5053357;28;20090;-70
2022/05/28 09:13:44;;;;;;;4.43;2.95;;;;;;;37.75;34.61;90664.13;5053342;28;20029;-71
2022/05/28 09:16:38;;;;;;;8.27;2.67;;;;;;;37.69;34.03;90662.47;5052383;28;20107;-68
2022/05/28 09:19:10;;;;;;;6.63;2.85;;;;;;;38.15;32.47;90662.56;5057923;28;20119;-70
2022/05/28 09:21:38;;;;;;;4.88;2.97;;;;;;;37.45;33.56;90666.22;5055323;28;20497;-70
2022/05/28 09:24:13;;;;;;;3.55;2.60;;;;;;;35.73;35.97;90667.41;5073117;28;20051;-69
2022/05/28 09:26:56;;;;;;;6.88;3.30;;;;;;;35.60;36.63;90653.78;5073540;28;20501;-70
2022/05/28 09:29:37;;;;;;;5.38;3.58;;;;;;;35.93;36.22;90658.50;5073127;28;20572;-71
2022/05/28 09:32:33;;;;;;;10.73;3.70;;;;;;;35.46;36.89;90660.03;5072851;28;20051;-70
2022/05/28 09:35:32;;;;;;;8.40;3.20;;;;;;;33.11;38.77;90653.81;5073037;28;20040;-69
2022/05/28 09:38:15;;;;;;;4.35;3.30;;;;;;;32.45;41.61;90661.50;5073146;28;20051;-69
2022/05/28 09:40:50;;;;;;;7.75;2.80;;;;;;;34.43;38.35;90656.56;5073206;28;20028;-69
2022/05/28 09:43:49;;;;;;;6.63;3.08;;;;;;;34.46;38.65;90647.34;5073031;28;20050;-68
2022/05/28 09:46:27;;;;;;;7.30;3.58;;;;;;;33.78;38.69;90657.81;5072461;28;20028;-68
2022/05/28 09:49:16;;;;;;;4.75;2.67;;;;;;;33.30;39.24;90655.44;5072932;28;20058;-67
2022/05/28 09:51:53;;;;;;;4.53;3.60;;;;;;;33.40;39.80;90650.72;5072967;28;20078;-67
2022/05/28 09:54:23;;;;;;;3.90;2.40;;;;;;;33.32;40.78;90652.22;5072542;28;20540;-67
2022/05/28 09:57:00;;;;;;;2.53;2.33;;;;;;;31.17;43.66;90652.94;5072760;28;20519;-67
2022/05/28 09:59:35;;;;;;;6.45;2.92;;;;;;;28.46;48.36;90654.09;5054336;28;20046;-69
2022/05/28 10:02:21;;;;;;;3.50;2.65;;;;;;;26.99;52.62;90660.81;5054854;28;20093;-67
2022/05/28 10:05:11;;;;;;;10.70;5.18;;;;;;;25.71;56.56;90657.19;5055914;28;20071;-68
2022/05/28 10:07:43;;;;;;;5.28;2.80;;;;;;;24.64;62.51;90673.78;5054172;28;20028;-66
2022/05/28 10:10:29;;;;;;;4.13;2.70;;;;;;;24.12;70.13;90671.78;5072342;28;20040;-66
2022/05/28 10:13:24;;;;;;;4.10;2.90;;;;;;;23.07;78.06;90669.09;5072161;28;20099;-68
2022/05/28 10:16:00;;;;;;;6.32;4.45;;;;;;;22.95;83.81;90656.72;5049314;28;20045;-67
2022/05/28 10:18:36;;;;;;;5.85;4.03;;;;;;;22.59;88.54;90645.13;5072201;28;20056;-67
2022/05/28 10:21:11;;;;;;;4.80;3.17;;;;;;;22.53;92.66;90654.00;5072021;28;20028;-67
2022/05/28 10:23:42;;;;;;;5.28;3.22;;;;;;;22.73;91.37;90649.75;5072028;28;20021;-67
2022/05/28 10:26:26;;;;;;;6.18;3.40;;;;;;;22.78;90.29;90635.03;5070842;28;20040;-66
2022/05/28 10:28:55;;;;;;;;;;;;;;;22.84;88.80;90644.31;5072520;28;20514;-66
2022/05/28 10:31:34;;;;;;;4.63;2.95;;;;;;;22.62;91.40;90638.91;5070608;28;20446;-67
2022/05/28 10:34:00;;;;;;;5.13;3.05;;;;;;;22.20;93.41;90650.53;5071683;28;20033;-67
2022/05/28 10:36:30;;;;;;;4.45;3.53;;;;;;;22.16;94.72;90647.03;5070985;28;20039;-67
2022/05/28 10:39:06;;;;;;;8.23;4.43;;;;;;;22.29;93.30;90648.22;5071525;28;20035;-68
2022/05/28 10:41:34;;;;;;;7.32;3.20;;;;;;;22.63;89.97;90639.69;5071854;28;20070;-67
2022/05/28 10:43:59;;;;;;;6.32;3.03;;;;;;;22.55;88.04;90619.94;5071018;28;20379;-68
2022/05/28 10:46:43;;;;;;;8.48;3.47;;;;;;;22.93;84.80;90615.66;5070608;28;20043;-67
2022/05/28 10:49:28;;;;;;;5.47;3.08;;;;;;;25.23;67.80;90613.75;5071407;28;20040;-67
2022/05/28 10:52:05;;;;;;;3.67;2.70;;;;;;;24.37;68.94;90613.78;5071412;28;20107;-67
2022/05/28 10:54:54;;;;;;;3.90;3.30;;;;;;;23.81;70.90;90621.09;5071162;28;20482;-67
2022/05/28 10:57:40;;;;;;;7.60;2.88;;;;;;;23.34;75.69;90634.09;5070565;28;20046;-67
2022/05/28 11:00:26;;;;;;;4.30;2.45;;;;;;;22.80;78.72;90627.25;5053014;28;20035;-67
2022/05/28 11:03:25;;;;;;;4.22;3.30;;;;;;;22.86;80.44;90623.78;5071025;28;20024;-66
2022/05/28 11:06:15;;;;;;;4.95;3.00;;;;;;;22.76;81.89;90607.53;5070124;28;20032;-66
2022/05/28 11:09:05;;;;;;;6.10;3.38;;;;;;;23.19;77.67;90591.91;5071034;28;20043;-66
2022/05/28 11:12:04;;;;;;;4.65;3.63;;;;;;;23.31;78.32;90596.91;5071155;28;20463;-66
2022/05/28 11:15:00;;;;;;;5.20;3.20;;;;;;;24.50;75.29;90593.09;5070544;28;20482;-67
2022/05/28 11:17:41;;;;;;;18.38;3.92;;;;;;;24.96;72.72;90597.31;5070516;28;20111;-67
2022/05/28 11:20:36;;;;;;;4.85;2.90;;;;;;;23.65;73.59;90594.44;5071076;28;20020;-67
2022/05/28 11:23:30;;;;;;;8.32;3.70;;;;;;;22.90;75.94;90621.84;5070853;28;20021;-67
2022/05/28 11:26:01;;;;;;;;;;;;;;;22.48;80.35;90619.16;5070413;28;20119;-67
2022/05/28 11:28:35;;;;;;;8.00;3.47;;;;;;;22.09;82.98;90609.91;5070320;28;19909;-67
2022/05/28 11:31:13;;;;;;;5.93;3.13;;;;;;;22.00;85.28;90581.59;5070848;28;20036;-67
2022/05/28 11:33:46;;;;;;;9.43;3.65;;;;;;;21.67;87.71;90593.56;5069466;28;20039;-67
2022/05/28 11:36:29;;;;;;;6.00;3.25;;;;;;;21.55;89.88;90602.81;5069699;28;20032;-66
2022/05/28 11:39:16;;;;;;;4.00;3.05;;;;;;;21.42;92.71;90598.91;5052959;28;20040;-67
2022/05/28 11:42:06;;;;;;;6.13;2.90;;;;;;;21.24;95.99;90577.19;5070771;28;20086;-66
2022/05/28 11:44:40;;;;;;;6.30;3.20;;;;;;;21.22;99.93;90566.75;5070465;28;20020;-66
2022/05/28 11:47:35;;;;;;;7.18;3.58;;;;;;;21.26;100.00;90588.44;5069797;28;20043;-66
2022/05/28 11:53:31;;;;;;;8.65;2.60;;;;;;;21.32;94.28;90618.63;5070808;28;20105;-67
2022/05/28 11:56:05;;;;;;;6.20;3.35;;;;;;;21.38;90.78;90620.56;5051501;28;20028;-67